Wilson Clyde — 8PRV — position and weather

sailwx.info

Track history (hours):
 
Tides and Currents Weather Stations Pressure Air Temp Water Temp Dewpoint Dewpoint Depression Visibility Wind Speed Wind Dir Waves Ship Positions

Wilson Clyde

Last reported at 2015-Aug-27 10:25 UTC. Time now 2015-Aug-29 23:36 UTC.
Position N 39°19' W 009°50'.

Length 100 m; draft 5.8 m.

Type: Ship. MMSI: 314187000.

Date/timePositionNaut miles runAvg speedWind from/ knotsBaromVisibWave heightAir tempDewpointWater temp
2015-Aug-27 10:25N 39°19' W 009°50'8 9.6
2015-Aug-27 09:33N 39°10' W 009°50'9 9.5
2015-Aug-27 08:34N 39°01' W 009°50'10 9.8
2015-Aug-27 07:33N 38°51' W 009°51'10 9.6
2015-Aug-27 06:34N 38°42' W 009°50'9 9.4
2015-Aug-27 05:33N 38°32' W 009°47'10 9.5
2015-Aug-27 04:33N 38°23' W 009°45'10 9.9
2015-Aug-27 03:33N 38°14' W 009°42'1010.0
2015-Aug-27 02:33N 38°04' W 009°39'1010.2
2015-Aug-27 01:33N 37°54' W 009°36'1010.0
2015-Aug-27 00:33N 37°44' W 009°33'1010.2
2015-Aug-26 23:33N 37°34' W 009°31'10 9.8
2015-Aug-26 22:33N 37°25' W 009°28'1010.0
2015-Aug-26 21:32N 37°15' W 009°24'9 9.6
2015-Aug-26 20:33N 37°06' W 009°22'9 8.9
2015-Aug-26 19:33N 36°57' W 009°19'9 8.4
2015-Aug-26 18:32N 36°50' W 009°14'8 8.5
2015-Aug-26 17:33N 36°45' W 009°06'14 9.6
2015-Aug-26 16:06N 36°40' W 008°49'5 9.6
2015-Aug-26 15:33N 36°38' W 008°43'11 9.9
2015-Aug-26 14:25N 36°35' W 008°30'  
2015-Aug-23 06:22N 37°17' W 001°27'2210.8
2015-Aug-23 04:22N 37°24' W 001°01'910.8
2015-Aug-23 03:33N 37°28' W 000°51'1310.9
2015-Aug-23 02:21N 37°33' W 000°36'810.8
2015-Aug-23 01:34N 37°40' W 000°29'1111.5
2015-Aug-23 00:34N 37°49' W 000°21'1211.4
2015-Aug-22 23:32N 37°59' W 000°13'1611.4
2015-Aug-22 22:07N 38°13' W 000°02'811.2
2015-Aug-22 21:22N 38°20' E 000°04'910.8
2015-Aug-22 20:33N 38°27' E 000°10'9311.1
2015-Aug-22 12:07N 39°42' E 001°22'711.0
2015-Aug-22 11:27N 39°48' E 001°28'1011.2
2015-Aug-22 10:33N 39°56' E 001°36'1111.2
2015-Aug-22 09:33N 40°05' E 001°45'1111.5
2015-Aug-22 08:33N 40°14' E 001°54'1211.5
2015-Aug-22 07:33N 40°23' E 002°03'1211.6
2015-Aug-22 06:33N 40°32' E 002°13'1211.6
2015-Aug-22 05:33N 40°41' E 002°22'1211.8
2015-Aug-22 04:33N 40°50' E 002°32'1211.9
2015-Aug-22 03:33N 40°60' E 002°41'1211.5
2015-Aug-22 02:31N 41°09' E 002°51'1411.3
2015-Aug-22 01:20N 41°20' E 003°02'911.5
2015-Aug-22 00:32N 41°27' E 003°09'1111.3
2015-Aug-21 23:33N 41°36' E 003°18'1111.2
2015-Aug-21 22:32N 41°45' E 003°28'3811.5
2015-Aug-21 19:12N 42°15' E 003°59'6811.4
2015-Aug-21 13:14N 43°08' E 004°57'710.6
2015-Aug-21 12:33N 43°15' E 005°00'9 9.3
2015-Aug-21 11:34N 43°24' E 005°00'1 0.5
2015-Aug-21 10:31N 43°24' E 005°01'0 0.0
2015-Aug-21 09:31N 43°24' E 005°01'0 0.0
2015-Aug-21 08:31N 43°24' E 005°01'0 0.0
2015-Aug-21 07:31N 43°24' E 005°01'0 0.0
2015-Aug-21 06:31N 43°24' E 005°01'0 0.0
2015-Aug-21 05:31N 43°24' E 005°01'0 0.0
2015-Aug-21 04:31N 43°24' E 005°01'0 0.0
2015-Aug-21 03:31N 43°24' E 005°01'0 0.0
2015-Aug-21 02:31N 43°24' E 005°01'0 0.0
2015-Aug-21 01:31N 43°24' E 005°01'0 0.0
2015-Aug-21 00:31N 43°24' E 005°01'0 0.0
2015-Aug-20 23:31N 43°24' E 005°01'0 0.0
2015-Aug-20 22:31N 43°24' E 005°01'0 0.0
2015-Aug-20 21:31N 43°24' E 005°01'0 0.0
2015-Aug-20 20:31N 43°24' E 005°01'0 0.0
2015-Aug-20 19:31N 43°24' E 005°01'0 0.0
2015-Aug-20 18:31N 43°24' E 005°01'0 0.0
2015-Aug-20 17:31N 43°24' E 005°01'0 0.0
2015-Aug-20 16:28N 43°24' E 005°01'0 0.0
2015-Aug-20 15:31N 43°24' E 005°01'0 0.0
2015-Aug-20 14:31N 43°24' E 005°01'0 0.0
2015-Aug-20 13:31N 43°24' E 005°01'0 0.0
2015-Aug-20 12:31N 43°24' E 005°01'0 0.0
2015-Aug-20 11:31N 43°24' E 005°01'0 0.0
2015-Aug-20 10:31N 43°24' E 005°01'0 0.0
2015-Aug-20 09:31N 43°24' E 005°01'0 0.0
2015-Aug-20 08:31N 43°24' E 005°01'0 0.0
2015-Aug-20 07:31N 43°24' E 005°01'0 0.0
2015-Aug-20 06:31N 43°24' E 005°01'0 0.0
2015-Aug-20 05:31N 43°24' E 005°01'0 0.0
2015-Aug-20 04:31N 43°24' E 005°01'0 0.0
2015-Aug-20 03:31N 43°24' E 005°01'0 0.0
2015-Aug-20 02:33N 43°24' E 005°01'0 0.0
2015-Aug-20 01:33N 43°24' E 005°01'5 4.8
2015-Aug-20 00:33N 43°20' E 004°59'9 9.4
2015-Aug-19 23:33N 43°10' E 005°01'16610.1
2015-Aug-19 07:14N 40°59' E 002°45'7 9.9
2015-Aug-19 06:33N 40°54' E 002°40'10 9.8
2015-Aug-19 05:33N 40°46' E 002°32'10 9.8
2015-Aug-19 04:33N 40°38' E 002°24'10 9.7
2015-Aug-19 03:33N 40°30' E 002°17'10 9.6
2015-Aug-19 02:33N 40°23' E 002°08'9 9.3
2015-Aug-19 01:33N 40°16' E 002°01'9 9.4
2015-Aug-19 00:33N 40°08' E 001°53'9 9.1
2015-Aug-18 23:33N 40°01' E 001°46'9 8.9
2015-Aug-18 22:33N 39°54' E 001°39'9 8.8
2015-Aug-18 21:32N 39°47' E 001°32'21 8.6
2015-Aug-18 19:10N 39°31' E 001°16'9 8.4
2015-Aug-18 18:08N 39°24' E 001°09'4 7.6
2015-Aug-18 17:33N 39°20' E 001°05'116 8.9
2015-Aug-18 04:33N 37°45' W 000°20'3 9.1
2015-Aug-18 04:11N 37°42' W 000°23'0 9.0
2015-Aug-18 04:08N 37°42' W 000°23'5 8.9
2015-Aug-18 03:33N 37°38' W 000°27'11 9.1
2015-Aug-18 02:20N 37°30' W 000°36'7 8.9
2015-Aug-18 01:32N 37°25' W 000°43'  
Track history (hours):
 
Tides and Currents Weather Stations Pressure Air Temp Water Temp Dewpoint Dewpoint Depression Visibility Wind Speed Wind Dir Waves Ship Positions

Wilson Clyde

Last reported at 2015-Aug-27 10:25 UTC. Time now 2015-Aug-29 23:36 UTC.
Position N 39°19' W 009°50'.

Length 100 m; draft 5.8 m.

Type: Ship. MMSI: 314187000.

Date/timePositionNaut miles runAvg speedWind from/ knotsBaromVisibWave heightAir tempDewpointWater temp
2015-Aug-27 10:25N 39°19' W 009°50'8 9.6
2015-Aug-27 09:33N 39°10' W 009°50'9 9.5
2015-Aug-27 08:34N 39°01' W 009°50'10 9.8
2015-Aug-27 07:33N 38°51' W 009°51'10 9.6
2015-Aug-27 06:34N 38°42' W 009°50'9 9.4
2015-Aug-27 05:33N 38°32' W 009°47'10 9.5
2015-Aug-27 04:33N 38°23' W 009°45'10 9.9
2015-Aug-27 03:33N 38°14' W 009°42'1010.0
2015-Aug-27 02:33N 38°04' W 009°39'1010.2
2015-Aug-27 01:33N 37°54' W 009°36'1010.0
2015-Aug-27 00:33N 37°44' W 009°33'1010.2
2015-Aug-26 23:33N 37°34' W 009°31'10 9.8
2015-Aug-26 22:33N 37°25' W 009°28'1010.0
2015-Aug-26 21:32N 37°15' W 009°24'9 9.6
2015-Aug-26 20:33N 37°06' W 009°22'9 8.9
2015-Aug-26 19:33N 36°57' W 009°19'9 8.4
2015-Aug-26 18:32N 36°50' W 009°14'8 8.5
2015-Aug-26 17:33N 36°45' W 009°06'14 9.6
2015-Aug-26 16:06N 36°40' W 008°49'5 9.6
2015-Aug-26 15:33N 36°38' W 008°43'11 9.9
2015-Aug-26 14:25N 36°35' W 008°30'  
2015-Aug-23 06:22N 37°17' W 001°27'2210.8
2015-Aug-23 04:22N 37°24' W 001°01'910.8
2015-Aug-23 03:33N 37°28' W 000°51'1310.9
2015-Aug-23 02:21N 37°33' W 000°36'810.8
2015-Aug-23 01:34N 37°40' W 000°29'1111.5
2015-Aug-23 00:34N 37°49' W 000°21'1211.4
2015-Aug-22 23:32N 37°59' W 000°13'1611.4
2015-Aug-22 22:07N 38°13' W 000°02'811.2
2015-Aug-22 21:22N 38°20' E 000°04'910.8
2015-Aug-22 20:33N 38°27' E 000°10'9311.1
2015-Aug-22 12:07N 39°42' E 001°22'711.0
2015-Aug-22 11:27N 39°48' E 001°28'1011.2
2015-Aug-22 10:33N 39°56' E 001°36'1111.2
2015-Aug-22 09:33N 40°05' E 001°45'1111.5
2015-Aug-22 08:33N 40°14' E 001°54'1211.5
2015-Aug-22 07:33N 40°23' E 002°03'1211.6
2015-Aug-22 06:33N 40°32' E 002°13'1211.6
2015-Aug-22 05:33N 40°41' E 002°22'1211.8
2015-Aug-22 04:33N 40°50' E 002°32'1211.9
2015-Aug-22 03:33N 40°60' E 002°41'1211.5
2015-Aug-22 02:31N 41°09' E 002°51'1411.3
2015-Aug-22 01:20N 41°20' E 003°02'911.5
2015-Aug-22 00:32N 41°27' E 003°09'1111.3
2015-Aug-21 23:33N 41°36' E 003°18'1111.2
2015-Aug-21 22:32N 41°45' E 003°28'3811.5
2015-Aug-21 19:12N 42°15' E 003°59'6811.4
2015-Aug-21 13:14N 43°08' E 004°57'710.6
2015-Aug-21 12:33N 43°15' E 005°00'9 9.3
2015-Aug-21 11:34N 43°24' E 005°00'1 0.5
2015-Aug-21 10:31N 43°24' E 005°01'0 0.0
2015-Aug-21 09:31N 43°24' E 005°01'0 0.0
2015-Aug-21 08:31N 43°24' E 005°01'0 0.0
2015-Aug-21 07:31N 43°24' E 005°01'0 0.0
2015-Aug-21 06:31N 43°24' E 005°01'0 0.0
2015-Aug-21 05:31N 43°24' E 005°01'0 0.0
2015-Aug-21 04:31N 43°24' E 005°01'0 0.0
2015-Aug-21 03:31N 43°24' E 005°01'0 0.0
2015-Aug-21 02:31N 43°24' E 005°01'0 0.0
2015-Aug-21 01:31N 43°24' E 005°01'0 0.0
2015-Aug-21 00:31N 43°24' E 005°01'0 0.0
2015-Aug-20 23:31N 43°24' E 005°01'0 0.0
2015-Aug-20 22:31N 43°24' E 005°01'0 0.0
2015-Aug-20 21:31N 43°24' E 005°01'0 0.0
2015-Aug-20 20:31N 43°24' E 005°01'0 0.0
2015-Aug-20 19:31N 43°24' E 005°01'0 0.0
2015-Aug-20 18:31N 43°24' E 005°01'0 0.0
2015-Aug-20 17:31N 43°24' E 005°01'0 0.0
2015-Aug-20 16:28N 43°24' E 005°01'0 0.0
2015-Aug-20 15:31N 43°24' E 005°01'0 0.0
2015-Aug-20 14:31N 43°24' E 005°01'0 0.0
2015-Aug-20 13:31N 43°24' E 005°01'0 0.0
2015-Aug-20 12:31N 43°24' E 005°01'0 0.0
2015-Aug-20 11:31N 43°24' E 005°01'0 0.0
2015-Aug-20 10:31N 43°24' E 005°01'0 0.0
2015-Aug-20 09:31N 43°24' E 005°01'0 0.0
2015-Aug-20 08:31N 43°24' E 005°01'0 0.0
2015-Aug-20 07:31N 43°24' E 005°01'0 0.0
2015-Aug-20 06:31N 43°24' E 005°01'0 0.0
2015-Aug-20 05:31N 43°24' E 005°01'0 0.0
2015-Aug-20 04:31N 43°24' E 005°01'0 0.0
2015-Aug-20 03:31N 43°24' E 005°01'0 0.0
2015-Aug-20 02:33N 43°24' E 005°01'0 0.0
2015-Aug-20 01:33N 43°24' E 005°01'5 4.8
2015-Aug-20 00:33N 43°20' E 004°59'9 9.4
2015-Aug-19 23:33N 43°10' E 005°01'16610.1
2015-Aug-19 07:14N 40°59' E 002°45'7 9.9
2015-Aug-19 06:33N 40°54' E 002°40'10 9.8
2015-Aug-19 05:33N 40°46' E 002°32'10 9.8
2015-Aug-19 04:33N 40°38' E 002°24'10 9.7
2015-Aug-19 03:33N 40°30' E 002°17'10 9.6
2015-Aug-19 02:33N 40°23' E 002°08'9 9.3
2015-Aug-19 01:33N 40°16' E 002°01'9 9.4
2015-Aug-19 00:33N 40°08' E 001°53'9 9.1
2015-Aug-18 23:33N 40°01' E 001°46'9 8.9
2015-Aug-18 22:33N 39°54' E 001°39'9 8.8
2015-Aug-18 21:32N 39°47' E 001°32'21 8.6
2015-Aug-18 19:10N 39°31' E 001°16'9 8.4
2015-Aug-18 18:08N 39°24' E 001°09'4 7.6
2015-Aug-18 17:33N 39°20' E 001°05'116 8.9
2015-Aug-18 04:33N 37°45' W 000°20'3 9.1
2015-Aug-18 04:11N 37°42' W 000°23'0 9.0
2015-Aug-18 04:08N 37°42' W 000°23'5 8.9
2015-Aug-18 03:33N 37°38' W 000°27'11 9.1
2015-Aug-18 02:20N 37°30' W 000°36'7 8.9
2015-Aug-18 01:32N 37°25' W 000°43'  

Dump ship's entire track history